Wednesday, April 25, 2018, 5:01 AM EDT
Back to Local

KRME, Griffiss Airfield

Location: Rome, NY, United States Lat: 43.233
Local Time: 5:01 AM EDT ( 9:01 GMT) Lon: -75.4
Time Zone: US/Eastern Elev: 505 ft

Show me the last for .
Show Coded

Time T Td Feel RH Dir Speed Gust Alt SLP Vis Weather Sky Remarks
2018-04-25 03:53 50 48 48 92 70° 6 - 30.06 30.05 10 -RA FEW047 OVC060 1-hr Precip Total: 0.04"
2018-04-25 02:53 50 48 49 92 90° 3 - 30.09 30.08 8 -RA OVC050 1-hr Precip Total: 0.05"
2018-04-25 01:53 54 44 - 69 170° 14 - 30.11 30.11 10 -RA OVC065 1-hr Precip Total: Trace
6-hr Precip Total (2am): 0.00"
6-hr Min Temp (2am): 54.0°F
6-hr Max Temp (2am): 66.0°F
2018-04-25 00:53 57 39 - 50 160° 10 - 30.12 30.11 10 BKN110 24-hr Min Temp (1am): 42.1°F
24-hr Max Temp (1am): 73.0°F
2018-04-24 23:53 59 38 - 45 150° 7 - 30.12 30.11 10 FEW120 None
2018-04-24 22:53 60 37 - 42 170° 3 - 30.12 30.12 10 CLR None
2018-04-24 21:53 63 35 - 35 190° 9 - 30.12 30.12 10 CLR None
2018-04-24 20:53 64 32 - 30 180° 10 - 30.11 30.10 10 CLR None
2018-04-24 19:53 66 27 - 22 170° 9 - 30.08 30.07 10 CLR 6-hr Min Temp (8pm): 66.0°F
6-hr Max Temp (8pm): 73.0°F
2018-04-24 18:53 68 25 - 19 180° 10 - 30.08 30.08 10 CLR None
2018-04-24 17:53 70 26 - 19 170° 10 - 30.10 30.10 10 CLR None
2018-04-24 16:53 70 26 - 19 160° 6 - 30.11 30.11 10 CLR None
2018-04-24 15:53 72 26 - 17 170° 12 17 30.13 30.12 10 CLR None
2018-04-24 14:53 71 24 - 17 180° 9 - 30.16 30.15 10 CLR None
2018-04-24 13:53 69 21 - 16 200° 10 16 30.19 30.19 10 CLR 6-hr Min Temp (2pm): 48.9°F
6-hr Max Temp (2pm): 70.0°F
2018-04-24 12:53 67 21 - 17 200° 12 - 30.22 30.21 10 CLR None
2018-04-24 11:53 64 21 - 19 - - - 30.26 30.26 10 CLR None
2018-04-24 10:53 64 25 - 22 220° 8 - 30.29 30.28 10 CLR None
2018-04-24 09:53 59 31 - 34 140° 10 - 30.33 30.32 10 CLR None
2018-04-24 08:53 55 33 - 43 150° 8 - 30.34 30.34 10 CLR None
2018-04-24 07:53 49 35 47 58 140° 6 - 30.35 30.34 10 CLR 6-hr Min Temp (8am): 42.1°F
6-hr Max Temp (8am): 51.1°F
2018-04-24 06:53 45 31 43 57 110° 5 - 30.33 30.33 10 CLR None
2018-04-24 05:53 46 30 42 53 110° 8 - 30.32 30.32 10 CLR None

Support USWX by starting your Amazon purchase here.